sensor_id;sensor_type;location;lat;lon;timestamp;P1;durP1;ratioP1;P2;durP2;ratioP2
52268;SDS011;38224;50.950;4.100;2023-05-19T00:00:33;16.90;;;7.35;;
52268;SDS011;38224;50.950;4.100;2023-05-19T00:03:01;16.23;;;7.28;;
52268;SDS011;38224;50.950;4.100;2023-05-19T00:05:27;13.05;;;7.10;;
52268;SDS011;38224;50.950;4.100;2023-05-19T00:07:55;15.77;;;6.88;;
52268;SDS011;38224;50.950;4.100;2023-05-19T00:10:22;18.55;;;7.35;;
52268;SDS011;38224;50.950;4.100;2023-05-19T00:12:48;11.43;;;6.65;;
52268;SDS011;38224;50.950;4.100;2023-05-19T00:15:13;15.75;;;6.80;;
52268;SDS011;38224;50.950;4.100;2023-05-19T00:17:39;14.57;;;6.63;;
52268;SDS011;38224;50.950;4.100;2023-05-19T00:20:06;13.63;;;7.25;;
52268;SDS011;38224;50.950;4.100;2023-05-19T00:22:32;15.95;;;6.93;;
52268;SDS011;38224;50.950;4.100;2023-05-19T00:24:58;16.00;;;7.15;;
52268;SDS011;38224;50.950;4.100;2023-05-19T00:27:23;17.53;;;7.03;;
52268;SDS011;38224;50.950;4.100;2023-05-19T00:29:48;11.57;;;7.03;;
52268;SDS011;38224;50.950;4.100;2023-05-19T00:32:13;13.35;;;6.85;;
52268;SDS011;38224;50.950;4.100;2023-05-19T00:34:39;13.95;;;7.85;;
52268;SDS011;38224;50.950;4.100;2023-05-19T00:37:05;17.27;;;7.57;;
52268;SDS011;38224;50.950;4.100;2023-05-19T00:39:30;19.40;;;7.93;;
52268;SDS011;38224;50.950;4.100;2023-05-19T00:41:55;12.20;;;7.07;;
52268;SDS011;38224;50.950;4.100;2023-05-19T00:44:21;19.40;;;8.60;;
52268;SDS011;38224;50.950;4.100;2023-05-19T00:46:46;20.20;;;8.73;;
52268;SDS011;38224;50.950;4.100;2023-05-19T00:49:14;31.15;;;11.23;;
52268;SDS011;38224;50.950;4.100;2023-05-19T00:51:39;32.22;;;13.77;;
52268;SDS011;38224;50.950;4.100;2023-05-19T00:54:05;25.08;;;11.55;;
52268;SDS011;38224;50.950;4.100;2023-05-19T00:56:30;31.08;;;11.82;;
52268;SDS011;38224;50.950;4.100;2023-05-19T00:58:56;57.13;;;18.75;;
52268;SDS011;38224;50.950;4.100;2023-05-19T01:01:22;49.58;;;16.83;;
52268;SDS011;38224;50.950;4.100;2023-05-19T01:03:47;52.30;;;17.33;;
52268;SDS011;38224;50.950;4.100;2023-05-19T01:06:13;78.03;;;22.67;;
52268;SDS011;38224;50.950;4.100;2023-05-19T01:08:39;67.40;;;21.00;;
52268;SDS011;38224;50.950;4.100;2023-05-19T01:11:04;77.38;;;22.83;;
52268;SDS011;38224;50.950;4.100;2023-05-19T01:13:30;67.15;;;22.05;;
52268;SDS011;38224;50.950;4.100;2023-05-19T01:18:24;66.73;;;20.17;;
52268;SDS011;38224;50.950;4.100;2023-05-19T01:21:19;68.95;;;23.08;;
52268;SDS011;38224;50.950;4.100;2023-05-19T01:23:44;75.30;;;21.83;;
52268;SDS011;38224;50.950;4.100;2023-05-19T01:31:07;97.85;;;30.05;;
52268;SDS011;38224;50.950;4.100;2023-05-19T01:33:34;71.95;;;22.00;;
52268;SDS011;38224;50.950;4.100;2023-05-19T01:36:00;74.30;;;21.30;;
52268;SDS011;38224;50.950;4.100;2023-05-19T01:38:27;25.17;;;11.52;;
52268;SDS011;38224;50.950;4.100;2023-05-19T01:40:53;23.08;;;10.13;;
52268;SDS011;38224;50.950;4.100;2023-05-19T01:43:19;18.77;;;9.23;;
52268;SDS011;38224;50.950;4.100;2023-05-19T01:45:45;18.75;;;9.65;;
52268;SDS011;38224;50.950;4.100;2023-05-19T01:48:10;19.75;;;8.73;;
52268;SDS011;38224;50.950;4.100;2023-05-19T01:50:37;16.80;;;8.73;;
52268;SDS011;38224;50.950;4.100;2023-05-19T01:53:02;16.30;;;8.35;;
52268;SDS011;38224;50.950;4.100;2023-05-19T01:55:28;18.80;;;9.82;;
52268;SDS011;38224;50.950;4.100;2023-05-19T01:58:08;24.38;;;10.85;;
52268;SDS011;38224;50.950;4.100;2023-05-19T02:08:40;27.90;;;10.70;;
52268;SDS011;38224;50.950;4.100;2023-05-19T02:11:10;19.88;;;10.23;;
52268;SDS011;38224;50.950;4.100;2023-05-19T02:13:38;20.00;;;10.18;;
52268;SDS011;38224;50.950;4.100;2023-05-19T02:16:07;21.38;;;10.45;;
52268;SDS011;38224;50.950;4.100;2023-05-19T02:18:34;25.55;;;9.55;;
52268;SDS011;38224;50.950;4.100;2023-05-19T02:20:59;22.30;;;9.68;;
52268;SDS011;38224;50.950;4.100;2023-05-19T02:23:25;18.73;;;9.45;;
52268;SDS011;38224;50.950;4.100;2023-05-19T02:25:50;18.08;;;10.02;;
52268;SDS011;38224;50.950;4.100;2023-05-19T02:28:15;22.10;;;12.18;;
52268;SDS011;38224;50.950;4.100;2023-05-19T02:30:41;21.10;;;10.07;;
52268;SDS011;38224;50.950;4.100;2023-05-19T02:33:06;19.10;;;10.48;;
52268;SDS011;38224;50.950;4.100;2023-05-19T02:35:31;22.07;;;10.40;;
52268;SDS011;38224;50.950;4.100;2023-05-19T02:37:57;19.48;;;10.50;;
52268;SDS011;38224;50.950;4.100;2023-05-19T02:40:23;14.65;;;9.55;;
52268;SDS011;38224;50.950;4.100;2023-05-19T02:42:48;17.65;;;10.05;;
52268;SDS011;38224;50.950;4.100;2023-05-19T02:45:13;20.13;;;10.68;;
52268;SDS011;38224;50.950;4.100;2023-05-19T02:47:39;16.83;;;10.00;;
52268;SDS011;38224;50.950;4.100;2023-05-19T02:50:05;20.35;;;10.80;;
52268;SDS011;38224;50.950;4.100;2023-05-19T02:52:31;17.40;;;9.45;;
52268;SDS011;38224;50.950;4.100;2023-05-19T02:54:56;15.50;;;8.93;;
52268;SDS011;38224;50.950;4.100;2023-05-19T02:57:21;19.88;;;9.77;;
52268;SDS011;38224;50.950;4.100;2023-05-19T02:59:47;16.55;;;10.63;;
52268;SDS011;38224;50.950;4.100;2023-05-19T03:02:12;18.50;;;10.07;;
52268;SDS011;38224;50.950;4.100;2023-05-19T03:04:37;15.48;;;9.30;;
52268;SDS011;38224;50.950;4.100;2023-05-19T03:07:07;26.30;;;9.70;;
52268;SDS011;38224;50.950;4.100;2023-05-19T03:09:34;19.15;;;10.10;;
52268;SDS011;38224;50.950;4.100;2023-05-19T03:12:00;21.60;;;10.27;;
52268;SDS011;38224;50.950;4.100;2023-05-19T03:14:28;22.00;;;10.10;;
52268;SDS011;38224;50.950;4.100;2023-05-19T03:16:53;21.95;;;9.73;;
52268;SDS011;38224;50.950;4.100;2023-05-19T03:19:20;23.13;;;10.82;;
52268;SDS011;38224;50.950;4.100;2023-05-19T03:21:45;18.00;;;9.85;;
52268;SDS011;38224;50.950;4.100;2023-05-19T03:24:11;20.65;;;10.23;;
52268;SDS011;38224;50.950;4.100;2023-05-19T03:26:36;18.30;;;10.00;;
52268;SDS011;38224;50.950;4.100;2023-05-19T03:29:02;21.77;;;10.50;;
52268;SDS011;38224;50.950;4.100;2023-05-19T03:31:27;17.05;;;10.15;;
52268;SDS011;38224;50.950;4.100;2023-05-19T03:33:54;17.50;;;9.88;;
52268;SDS011;38224;50.950;4.100;2023-05-19T03:36:21;17.77;;;10.38;;
52268;SDS011;38224;50.950;4.100;2023-05-19T03:38:48;20.25;;;10.40;;
52268;SDS011;38224;50.950;4.100;2023-05-19T03:41:13;18.85;;;10.65;;
52268;SDS011;38224;50.950;4.100;2023-05-19T03:43:39;23.25;;;10.73;;
52268;SDS011;38224;50.950;4.100;2023-05-19T03:46:04;16.55;;;11.73;;
52268;SDS011;38224;50.950;4.100;2023-05-19T03:48:29;21.20;;;10.48;;
52268;SDS011;38224;50.950;4.100;2023-05-19T03:50:55;16.58;;;9.38;;
52268;SDS011;38224;50.950;4.100;2023-05-19T03:53:20;16.10;;;9.60;;
52268;SDS011;38224;50.950;4.100;2023-05-19T03:55:45;21.20;;;10.80;;
52268;SDS011;38224;50.950;4.100;2023-05-19T03:58:12;19.90;;;10.60;;
52268;SDS011;38224;50.950;4.100;2023-05-19T04:00:38;26.30;;;11.77;;
52268;SDS011;38224;50.950;4.100;2023-05-19T04:03:04;22.77;;;11.15;;
52268;SDS011;38224;50.950;4.100;2023-05-19T04:05:29;17.98;;;11.32;;
52268;SDS011;38224;50.950;4.100;2023-05-19T04:07:55;22.83;;;11.82;;
52268;SDS011;38224;50.950;4.100;2023-05-19T04:10:20;20.00;;;10.80;;
52268;SDS011;38224;50.950;4.100;2023-05-19T04:12:45;18.37;;;10.97;;
52268;SDS011;38224;50.950;4.100;2023-05-19T04:15:11;23.17;;;11.88;;
52268;SDS011;38224;50.950;4.100;2023-05-19T04:17:37;23.17;;;11.23;;
52268;SDS011;38224;50.950;4.100;2023-05-19T04:20:02;22.90;;;11.30;;
52268;SDS011;38224;50.950;4.100;2023-05-19T04:22:29;23.33;;;11.15;;
52268;SDS011;38224;50.950;4.100;2023-05-19T04:24:55;20.48;;;11.20;;
52268;SDS011;38224;50.950;4.100;2023-05-19T04:27:20;20.13;;;11.03;;
52268;SDS011;38224;50.950;4.100;2023-05-19T04:29:45;21.60;;;10.80;;
52268;SDS011;38224;50.950;4.100;2023-05-19T04:32:12;24.23;;;11.60;;
52268;SDS011;38224;50.950;4.100;2023-05-19T04:34:41;20.33;;;11.30;;
52268;SDS011;38224;50.950;4.100;2023-05-19T04:37:09;20.45;;;10.57;;
52268;SDS011;38224;50.950;4.100;2023-05-19T04:39:34;23.25;;;10.88;;
52268;SDS011;38224;50.950;4.100;2023-05-19T04:42:03;20.17;;;10.65;;
52268;SDS011;38224;50.950;4.100;2023-05-19T04:44:28;18.13;;;11.30;;
52268;SDS011;38224;50.950;4.100;2023-05-19T04:46:54;17.80;;;9.65;;
52268;SDS011;38224;50.950;4.100;2023-05-19T04:49:22;18.13;;;9.98;;
52268;SDS011;38224;50.950;4.100;2023-05-19T04:51:48;17.70;;;9.20;;
52268;SDS011;38224;50.950;4.100;2023-05-19T04:54:14;13.93;;;9.05;;
52268;SDS011;38224;50.950;4.100;2023-05-19T04:56:39;16.13;;;8.02;;
52268;SDS011;38224;50.950;4.100;2023-05-19T04:59:06;19.60;;;8.80;;
52268;SDS011;38224;50.950;4.100;2023-05-19T05:01:31;19.77;;;8.50;;
52268;SDS011;38224;50.950;4.100;2023-05-19T05:03:56;19.40;;;8.68;;
52268;SDS011;38224;50.950;4.100;2023-05-19T05:06:23;13.07;;;7.68;;
52268;SDS011;38224;50.950;4.100;2023-05-19T05:08:48;14.10;;;7.40;;
52268;SDS011;38224;50.950;4.100;2023-05-19T05:11:15;16.10;;;8.15;;
52268;SDS011;38224;50.950;4.100;2023-05-19T05:13:43;13.10;;;7.65;;
52268;SDS011;38224;50.950;4.100;2023-05-19T05:16:08;14.80;;;7.93;;
52268;SDS011;38224;50.950;4.100;2023-05-19T05:18:34;13.38;;;7.35;;
52268;SDS011;38224;50.950;4.100;2023-05-19T05:21:03;13.48;;;7.55;;
52268;SDS011;38224;50.950;4.100;2023-05-19T05:23:30;14.90;;;7.38;;
52268;SDS011;38224;50.950;4.100;2023-05-19T05:25:55;14.07;;;6.80;;
52268;SDS011;38224;50.950;4.100;2023-05-19T05:28:21;11.93;;;6.78;;
52268;SDS011;38224;50.950;4.100;2023-05-19T05:30:46;9.75;;;6.50;;
52268;SDS011;38224;50.950;4.100;2023-05-19T05:33:13;10.90;;;6.00;;
52268;SDS011;38224;50.950;4.100;2023-05-19T05:35:39;10.18;;;5.60;;
52268;SDS011;38224;50.950;4.100;2023-05-19T05:38:04;12.38;;;6.07;;
52268;SDS011;38224;50.950;4.100;2023-05-19T05:40:30;15.50;;;6.68;;
52268;SDS011;38224;50.950;4.100;2023-05-19T05:42:56;11.57;;;6.13;;
52268;SDS011;38224;50.950;4.100;2023-05-19T05:45:23;9.30;;;5.78;;
52268;SDS011;38224;50.950;4.100;2023-05-19T05:47:48;9.20;;;6.13;;
52268;SDS011;38224;50.950;4.100;2023-05-19T05:50:14;10.55;;;5.35;;
52268;SDS011;38224;50.950;4.100;2023-05-19T05:52:39;11.98;;;6.00;;
52268;SDS011;38224;50.950;4.100;2023-05-19T05:55:05;15.57;;;6.00;;
52268;SDS011;38224;50.950;4.100;2023-05-19T05:57:32;12.93;;;6.18;;
52268;SDS011;38224;50.950;4.100;2023-05-19T05:59:59;12.05;;;5.68;;
52268;SDS011;38224;50.950;4.100;2023-05-19T06:02:25;12.10;;;5.97;;
52268;SDS011;38224;50.950;4.100;2023-05-19T06:04:51;11.10;;;5.65;;
52268;SDS011;38224;50.950;4.100;2023-05-19T06:07:18;11.07;;;6.72;;
52268;SDS011;38224;50.950;4.100;2023-05-19T06:09:43;11.45;;;5.53;;
52268;SDS011;38224;50.950;4.100;2023-05-19T06:12:08;18.07;;;5.33;;
52268;SDS011;38224;50.950;4.100;2023-05-19T06:14:34;10.32;;;5.60;;
52268;SDS011;38224;50.950;4.100;2023-05-19T06:16:59;11.87;;;5.80;;
52268;SDS011;38224;50.950;4.100;2023-05-19T06:19:24;8.85;;;5.85;;
52268;SDS011;38224;50.950;4.100;2023-05-19T06:21:50;10.75;;;6.47;;
52268;SDS011;38224;50.950;4.100;2023-05-19T06:24:15;11.43;;;5.50;;
52268;SDS011;38224;50.950;4.100;2023-05-19T06:26:41;13.10;;;5.13;;
52268;SDS011;38224;50.950;4.100;2023-05-19T06:29:06;12.37;;;5.80;;
52268;SDS011;38224;50.950;4.100;2023-05-19T06:31:31;10.80;;;6.07;;
52268;SDS011;38224;50.950;4.100;2023-05-19T06:33:57;10.38;;;5.78;;
52268;SDS011;38224;50.950;4.100;2023-05-19T06:36:22;11.70;;;5.77;;
52268;SDS011;38224;50.950;4.100;2023-05-19T06:38:48;10.37;;;5.53;;
52268;SDS011;38224;50.950;4.100;2023-05-19T06:41:13;9.87;;;4.90;;
52268;SDS011;38224;50.950;4.100;2023-05-19T06:43:39;11.50;;;5.67;;
52268;SDS011;38224;50.950;4.100;2023-05-19T06:46:05;9.27;;;5.10;;
52268;SDS011;38224;50.950;4.100;2023-05-19T06:48:30;10.50;;;5.47;;
52268;SDS011;38224;50.950;4.100;2023-05-19T06:50:55;8.60;;;5.27;;
52268;SDS011;38224;50.950;4.100;2023-05-19T06:53:21;11.35;;;5.90;;
52268;SDS011;38224;50.950;4.100;2023-05-19T06:55:46;10.85;;;5.43;;
52268;SDS011;38224;50.950;4.100;2023-05-19T06:58:14;13.45;;;5.30;;
52268;SDS011;38224;50.950;4.100;2023-05-19T07:00:39;7.47;;;5.18;;
52268;SDS011;38224;50.950;4.100;2023-05-19T07:03:05;14.27;;;5.45;;
52268;SDS011;38224;50.950;4.100;2023-05-19T07:05:30;14.07;;;7.17;;
52268;SDS011;38224;50.950;4.100;2023-05-19T07:07:55;9.80;;;5.67;;
52268;SDS011;38224;50.950;4.100;2023-05-19T07:10:21;9.38;;;5.72;;
52268;SDS011;38224;50.950;4.100;2023-05-19T07:12:46;12.38;;;5.75;;
52268;SDS011;38224;50.950;4.100;2023-05-19T07:15:11;11.70;;;5.90;;
52268;SDS011;38224;50.950;4.100;2023-05-19T07:17:37;7.27;;;4.60;;
52268;SDS011;38224;50.950;4.100;2023-05-19T07:20:02;15.25;;;6.10;;
52268;SDS011;38224;50.950;4.100;2023-05-19T07:22:30;11.32;;;5.70;;
52268;SDS011;38224;50.950;4.100;2023-05-19T07:24:59;12.02;;;5.68;;
52268;SDS011;38224;50.950;4.100;2023-05-19T07:27:24;14.15;;;5.80;;
52268;SDS011;38224;50.950;4.100;2023-05-19T07:29:50;11.55;;;5.88;;
52268;SDS011;38224;50.950;4.100;2023-05-19T07:32:15;10.48;;;6.55;;
52268;SDS011;38224;50.950;4.100;2023-05-19T07:34:40;10.77;;;5.40;;
52268;SDS011;38224;50.950;4.100;2023-05-19T07:37:06;11.93;;;5.63;;
52268;SDS011;38224;50.950;4.100;2023-05-19T07:39:32;9.48;;;5.38;;
52268;SDS011;38224;50.950;4.100;2023-05-19T07:41:58;11.63;;;5.60;;
52268;SDS011;38224;50.950;4.100;2023-05-19T07:44:23;10.57;;;5.00;;
52268;SDS011;38224;50.950;4.100;2023-05-19T07:46:51;13.70;;;5.68;;
52268;SDS011;38224;50.950;4.100;2023-05-19T07:49:16;10.30;;;5.45;;
52268;SDS011;38224;50.950;4.100;2023-05-19T07:51:41;9.68;;;5.90;;
52268;SDS011;38224;50.950;4.100;2023-05-19T07:54:07;8.73;;;5.22;;
52268;SDS011;38224;50.950;4.100;2023-05-19T07:56:32;14.57;;;5.90;;
52268;SDS011;38224;50.950;4.100;2023-05-19T07:58:58;11.07;;;5.63;;
52268;SDS011;38224;50.950;4.100;2023-05-19T08:01:23;11.57;;;5.70;;
52268;SDS011;38224;50.950;4.100;2023-05-19T08:03:50;10.93;;;5.13;;
52268;SDS011;38224;50.950;4.100;2023-05-19T08:06:16;12.73;;;6.47;;
52268;SDS011;38224;50.950;4.100;2023-05-19T08:08:41;11.63;;;5.90;;
52268;SDS011;38224;50.950;4.100;2023-05-19T08:11:06;10.45;;;5.70;;
52268;SDS011;38224;50.950;4.100;2023-05-19T08:13:32;9.25;;;5.65;;
52268;SDS011;38224;50.950;4.100;2023-05-19T08:15:58;12.32;;;5.78;;
52268;SDS011;38224;50.950;4.100;2023-05-19T08:18:24;11.52;;;5.38;;
52268;SDS011;38224;50.950;4.100;2023-05-19T08:20:50;9.15;;;5.80;;
52268;SDS011;38224;50.950;4.100;2023-05-19T08:23:15;11.32;;;6.20;;
52268;SDS011;38224;50.950;4.100;2023-05-19T08:25:41;13.48;;;5.50;;
52268;SDS011;38224;50.950;4.100;2023-05-19T08:28:07;9.93;;;5.50;;
52268;SDS011;38224;50.950;4.100;2023-05-19T08:30:32;12.23;;;5.40;;
52268;SDS011;38224;50.950;4.100;2023-05-19T08:32:57;10.40;;;5.33;;
52268;SDS011;38224;50.950;4.100;2023-05-19T08:35:23;11.03;;;5.33;;
52268;SDS011;38224;50.950;4.100;2023-05-19T08:37:48;9.20;;;5.30;;
52268;SDS011;38224;50.950;4.100;2023-05-19T08:40:15;14.50;;;6.60;;
52268;SDS011;38224;50.950;4.100;2023-05-19T08:42:40;9.23;;;5.28;;
52268;SDS011;38224;50.950;4.100;2023-05-19T08:45:06;13.67;;;5.40;;
52268;SDS011;38224;50.950;4.100;2023-05-19T08:47:31;10.35;;;5.15;;
52268;SDS011;38224;50.950;4.100;2023-05-19T08:50:02;11.10;;;4.85;;
52268;SDS011;38224;50.950;4.100;2023-05-19T08:52:31;12.10;;;6.15;;
52268;SDS011;38224;50.950;4.100;2023-05-19T08:57:58;12.43;;;5.78;;
52268;SDS011;38224;50.950;4.100;2023-05-19T09:00:24;9.45;;;5.53;;
52268;SDS011;38224;50.950;4.100;2023-05-19T09:02:50;8.95;;;4.72;;
52268;SDS011;38224;50.950;4.100;2023-05-19T09:05:16;11.13;;;4.93;;
52268;SDS011;38224;50.950;4.100;2023-05-19T09:07:42;8.43;;;5.00;;
52268;SDS011;38224;50.950;4.100;2023-05-19T09:10:07;11.63;;;6.10;;
52268;SDS011;38224;50.950;4.100;2023-05-19T09:12:33;7.05;;;4.45;;
52268;SDS011;38224;50.950;4.100;2023-05-19T09:14:58;10.93;;;4.85;;
52268;SDS011;38224;50.950;4.100;2023-05-19T09:17:28;10.00;;;4.72;;
52268;SDS011;38224;50.950;4.100;2023-05-19T09:19:54;12.70;;;5.22;;
52268;SDS011;38224;50.950;4.100;2023-05-19T09:22:19;8.07;;;4.72;;
52268;SDS011;38224;50.950;4.100;2023-05-19T09:24:46;11.98;;;4.60;;
52268;SDS011;38224;50.950;4.100;2023-05-19T09:27:13;7.68;;;4.28;;
52268;SDS011;38224;50.950;4.100;2023-05-19T09:29:39;9.27;;;4.53;;
52268;SDS011;38224;50.950;4.100;2023-05-19T09:32:04;7.72;;;3.85;;
52268;SDS011;38224;50.950;4.100;2023-05-19T09:34:30;8.50;;;3.85;;
52268;SDS011;38224;50.950;4.100;2023-05-19T09:36:55;11.57;;;4.43;;
52268;SDS011;38224;50.950;4.100;2023-05-19T09:39:22;8.07;;;3.78;;
52268;SDS011;38224;50.950;4.100;2023-05-19T09:41:51;10.93;;;4.35;;
52268;SDS011;38224;50.950;4.100;2023-05-19T09:44:23;7.80;;;4.55;;
52268;SDS011;38224;50.950;4.100;2023-05-19T09:49:27;12.38;;;4.22;;
52268;SDS011;38224;50.950;4.100;2023-05-19T09:52:01;9.27;;;4.40;;
52268;SDS011;38224;50.950;4.100;2023-05-19T09:54:27;13.93;;;3.90;;
52268;SDS011;38224;50.950;4.100;2023-05-19T09:57:13;10.93;;;3.38;;
52268;SDS011;38224;50.950;4.100;2023-05-19T09:59:38;9.47;;;3.80;;
52268;SDS011;38224;50.950;4.100;2023-05-19T10:02:04;9.30;;;3.80;;
52268;SDS011;38224;50.950;4.100;2023-05-19T10:04:33;8.95;;;4.13;;
52268;SDS011;38224;50.950;4.100;2023-05-19T10:07:03;7.47;;;3.10;;
52268;SDS011;38224;50.950;4.100;2023-05-19T10:09:29;7.30;;;3.42;;
52268;SDS011;38224;50.950;4.100;2023-05-19T10:11:55;10.45;;;3.92;;
52268;SDS011;38224;50.950;4.100;2023-05-19T10:14:21;9.25;;;3.75;;
52268;SDS011;38224;50.950;4.100;2023-05-19T10:16:48;9.35;;;3.42;;
52268;SDS011;38224;50.950;4.100;2023-05-19T10:19:14;7.82;;;2.88;;
52268;SDS011;38224;50.950;4.100;2023-05-19T10:21:40;7.60;;;3.28;;
52268;SDS011;38224;50.950;4.100;2023-05-19T10:24:05;10.13;;;4.00;;
52268;SDS011;38224;50.950;4.100;2023-05-19T10:26:30;8.25;;;2.97;;
52268;SDS011;38224;50.950;4.100;2023-05-19T10:28:56;7.00;;;3.20;;
52268;SDS011;38224;50.950;4.100;2023-05-19T10:31:22;8.93;;;3.58;;
52268;SDS011;38224;50.950;4.100;2023-05-19T10:36:24;9.63;;;4.37;;
52268;SDS011;38224;50.950;4.100;2023-05-19T10:38:57;9.30;;;2.92;;
52268;SDS011;38224;50.950;4.100;2023-05-19T10:41:30;10.43;;;3.28;;
52268;SDS011;38224;50.950;4.100;2023-05-19T10:46:28;8.05;;;3.17;;
52268;SDS011;38224;50.950;4.100;2023-05-19T10:48:53;7.05;;;3.15;;
52268;SDS011;38224;50.950;4.100;2023-05-19T10:51:19;6.22;;;2.85;;
52268;SDS011;38224;50.950;4.100;2023-05-19T10:53:44;7.18;;;3.25;;
52268;SDS011;38224;50.950;4.100;2023-05-19T10:56:10;8.65;;;3.53;;
52268;SDS011;38224;50.950;4.100;2023-05-19T11:01:08;11.50;;;3.33;;
52268;SDS011;38224;50.950;4.100;2023-05-19T11:03:55;6.50;;;3.03;;
52268;SDS011;38224;50.950;4.100;2023-05-19T11:08:56;9.98;;;3.45;;
52268;SDS011;38224;50.950;4.100;2023-05-19T11:11:22;12.48;;;3.60;;
52268;SDS011;38224;50.950;4.100;2023-05-19T11:13:49;7.38;;;3.65;;
52268;SDS011;38224;50.950;4.100;2023-05-19T11:16:17;9.48;;;3.67;;
52268;SDS011;38224;50.950;4.100;2023-05-19T11:18:46;6.78;;;3.05;;
52268;SDS011;38224;50.950;4.100;2023-05-19T11:21:11;6.85;;;3.15;;
52268;SDS011;38224;50.950;4.100;2023-05-19T11:23:37;7.13;;;3.43;;
52268;SDS011;38224;50.950;4.100;2023-05-19T11:26:04;11.05;;;3.72;;
52268;SDS011;38224;50.950;4.100;2023-05-19T11:28:30;7.63;;;3.53;;
52268;SDS011;38224;50.950;4.100;2023-05-19T11:30:56;8.23;;;3.58;;
52268;SDS011;38224;50.950;4.100;2023-05-19T11:33:22;8.75;;;3.40;;
52268;SDS011;38224;50.950;4.100;2023-05-19T11:35:51;8.90;;;3.80;;
52268;SDS011;38224;50.950;4.100;2023-05-19T11:38:17;10.30;;;3.42;;
52268;SDS011;38224;50.950;4.100;2023-05-19T11:40:43;9.70;;;3.47;;
52268;SDS011;38224;50.950;4.100;2023-05-19T11:43:09;8.73;;;3.28;;
52268;SDS011;38224;50.950;4.100;2023-05-19T11:45:35;8.35;;;2.92;;
52268;SDS011;38224;50.950;4.100;2023-05-19T11:48:00;8.27;;;3.35;;
52268;SDS011;38224;50.950;4.100;2023-05-19T11:50:29;10.55;;;3.00;;
52268;SDS011;38224;50.950;4.100;2023-05-19T11:52:55;8.48;;;3.10;;
52268;SDS011;38224;50.950;4.100;2023-05-19T11:55:28;6.28;;;3.30;;
52268;SDS011;38224;50.950;4.100;2023-05-19T12:00:21;7.55;;;3.30;;
52268;SDS011;38224;50.950;4.100;2023-05-19T12:02:47;6.57;;;2.90;;
52268;SDS011;38224;50.950;4.100;2023-05-19T12:05:22;8.27;;;3.07;;
52268;SDS011;38224;50.950;4.100;2023-05-19T12:07:48;5.88;;;2.58;;
52268;SDS011;38224;50.950;4.100;2023-05-19T12:10:17;8.23;;;2.88;;
52268;SDS011;38224;50.950;4.100;2023-05-19T12:12:44;7.00;;;2.47;;
52268;SDS011;38224;50.950;4.100;2023-05-19T12:15:09;6.93;;;3.10;;
52268;SDS011;38224;50.950;4.100;2023-05-19T12:17:35;7.55;;;3.08;;
52268;SDS011;38224;50.950;4.100;2023-05-19T12:20:00;6.37;;;2.67;;
52268;SDS011;38224;50.950;4.100;2023-05-19T12:22:27;8.10;;;3.08;;
52268;SDS011;38224;50.950;4.100;2023-05-19T12:24:52;6.07;;;3.17;;
52268;SDS011;38224;50.950;4.100;2023-05-19T12:27:19;7.70;;;3.28;;
52268;SDS011;38224;50.950;4.100;2023-05-19T12:29:52;8.65;;;2.85;;
52268;SDS011;38224;50.950;4.100;2023-05-19T12:32:18;6.15;;;3.00;;
52268;SDS011;38224;50.950;4.100;2023-05-19T12:34:43;8.65;;;2.97;;
52268;SDS011;38224;50.950;4.100;2023-05-19T12:37:09;16.23;;;3.22;;
52268;SDS011;38224;50.950;4.100;2023-05-19T12:39:34;7.85;;;3.10;;
52268;SDS011;38224;50.950;4.100;2023-05-19T12:42:00;8.20;;;3.15;;
52268;SDS011;38224;50.950;4.100;2023-05-19T12:44:26;6.60;;;3.10;;
52268;SDS011;38224;50.950;4.100;2023-05-19T12:46:52;7.50;;;3.15;;
52268;SDS011;38224;50.950;4.100;2023-05-19T12:49:17;9.33;;;3.10;;
52268;SDS011;38224;50.950;4.100;2023-05-19T12:51:49;9.07;;;4.03;;
52268;SDS011;38224;50.950;4.100;2023-05-19T12:54:17;8.35;;;3.63;;
52268;SDS011;38224;50.950;4.100;2023-05-19T12:56:48;8.73;;;3.05;;
52268;SDS011;38224;50.950;4.100;2023-05-19T12:59:20;8.00;;;3.22;;
52268;SDS011;38224;50.950;4.100;2023-05-19T13:01:45;5.63;;;2.65;;
52268;SDS011;38224;50.950;4.100;2023-05-19T13:04:10;6.57;;;3.00;;
52268;SDS011;38224;50.950;4.100;2023-05-19T13:06:35;7.00;;;2.90;;
52268;SDS011;38224;50.950;4.100;2023-05-19T13:09:05;8.60;;;2.95;;
52268;SDS011;38224;50.950;4.100;2023-05-19T13:11:31;5.63;;;3.08;;
52268;SDS011;38224;50.950;4.100;2023-05-19T13:13:56;12.85;;;3.10;;
52268;SDS011;38224;50.950;4.100;2023-05-19T13:16:22;9.98;;;3.22;;
52268;SDS011;38224;50.950;4.100;2023-05-19T13:18:47;7.57;;;3.00;;
52268;SDS011;38224;50.950;4.100;2023-05-19T13:21:12;7.93;;;3.00;;
52268;SDS011;38224;50.950;4.100;2023-05-19T13:23:38;9.43;;;2.97;;
52268;SDS011;38224;50.950;4.100;2023-05-19T13:26:04;4.28;;;2.65;;
52268;SDS011;38224;50.950;4.100;2023-05-19T13:28:30;7.35;;;2.78;;
52268;SDS011;38224;50.950;4.100;2023-05-19T13:30:57;11.70;;;3.80;;
52268;SDS011;38224;50.950;4.100;2023-05-19T13:33:23;8.85;;;2.88;;
52268;SDS011;38224;50.950;4.100;2023-05-19T13:35:48;7.67;;;3.00;;
52268;SDS011;38224;50.950;4.100;2023-05-19T13:38:15;9.93;;;3.35;;
52268;SDS011;38224;50.950;4.100;2023-05-19T13:40:40;6.80;;;3.00;;
52268;SDS011;38224;50.950;4.100;2023-05-19T13:43:05;10.68;;;2.92;;
52268;SDS011;38224;50.950;4.100;2023-05-19T13:45:32;9.20;;;2.95;;
52268;SDS011;38224;50.950;4.100;2023-05-19T13:47:57;7.10;;;2.50;;
52268;SDS011;38224;50.950;4.100;2023-05-19T13:50:24;7.38;;;3.42;;
52268;SDS011;38224;50.950;4.100;2023-05-19T13:52:49;10.43;;;3.08;;
52268;SDS011;38224;50.950;4.100;2023-05-19T13:55:14;11.20;;;2.70;;
52268;SDS011;38224;50.950;4.100;2023-05-19T13:57:40;10.68;;;3.35;;
52268;SDS011;38224;50.950;4.100;2023-05-19T14:00:06;10.45;;;3.13;;
52268;SDS011;38224;50.950;4.100;2023-05-19T14:02:32;6.50;;;3.25;;
52268;SDS011;38224;50.950;4.100;2023-05-19T14:04:57;9.43;;;3.55;;
52268;SDS011;38224;50.950;4.100;2023-05-19T14:07:22;5.93;;;2.90;;
52268;SDS011;38224;50.950;4.100;2023-05-19T14:09:48;11.25;;;3.42;;
52268;SDS011;38224;50.950;4.100;2023-05-19T14:12:15;10.27;;;3.33;;
52268;SDS011;38224;50.950;4.100;2023-05-19T14:14:40;8.68;;;2.78;;
52268;SDS011;38224;50.950;4.100;2023-05-19T14:17:05;6.70;;;2.93;;
52268;SDS011;38224;50.950;4.100;2023-05-19T14:19:30;6.82;;;2.90;;
52268;SDS011;38224;50.950;4.100;2023-05-19T14:21:56;4.57;;;2.30;;
52268;SDS011;38224;50.950;4.100;2023-05-19T14:24:21;7.47;;;3.13;;
52268;SDS011;38224;50.950;4.100;2023-05-19T14:26:46;4.47;;;2.60;;
52268;SDS011;38224;50.950;4.100;2023-05-19T14:29:13;11.75;;;3.35;;
52268;SDS011;38224;50.950;4.100;2023-05-19T14:31:38;5.27;;;2.43;;
52268;SDS011;38224;50.950;4.100;2023-05-19T14:34:03;5.27;;;2.43;;
52268;SDS011;38224;50.950;4.100;2023-05-19T14:36:29;7.83;;;3.13;;
52268;SDS011;38224;50.950;4.100;2023-05-19T14:38:56;7.88;;;2.80;;
52268;SDS011;38224;50.950;4.100;2023-05-19T14:41:21;7.80;;;3.13;;
52268;SDS011;38224;50.950;4.100;2023-05-19T14:43:50;8.05;;;2.80;;
52268;SDS011;38224;50.950;4.100;2023-05-19T14:46:15;7.13;;;2.10;;
52268;SDS011;38224;50.950;4.100;2023-05-19T14:48:41;5.80;;;2.38;;
52268;SDS011;38224;50.950;4.100;2023-05-19T14:51:06;6.93;;;2.70;;
52268;SDS011;38224;50.950;4.100;2023-05-19T14:53:32;9.07;;;2.70;;
52268;SDS011;38224;50.950;4.100;2023-05-19T14:55:58;10.70;;;3.17;;
52268;SDS011;38224;50.950;4.100;2023-05-19T14:58:23;4.23;;;2.20;;
52268;SDS011;38224;50.950;4.100;2023-05-19T15:00:48;11.00;;;3.23;;
52268;SDS011;38224;50.950;4.100;2023-05-19T15:03:13;8.32;;;2.50;;